createdAt,value
2019-03-29T00:01:57.800Z,3.17
2019-03-29T00:04:27.608Z,3.93
2019-03-29T00:06:57.201Z,4.27
2019-03-29T00:09:26.745Z,3.07
2019-03-29T00:11:56.331Z,4.90
2019-03-29T00:14:25.828Z,4.50
2019-03-29T00:16:55.867Z,3.73
2019-03-29T00:19:25.438Z,4.73
2019-03-29T00:21:55.050Z,3.83
2019-03-29T00:24:24.954Z,3.63
2019-03-29T00:26:54.554Z,2.93
2019-03-29T00:29:24.147Z,3.90
2019-03-29T00:31:54.144Z,5.20
2019-03-29T00:34:23.733Z,4.90
2019-03-29T00:36:53.337Z,2.90
2019-03-29T00:39:23.066Z,4.73
2019-03-29T00:41:52.565Z,2.20
2019-03-29T00:44:22.147Z,3.07
2019-03-29T00:46:52.330Z,3.80
2019-03-29T00:49:21.850Z,2.90
2019-03-29T00:51:51.428Z,2.60
2019-03-29T00:54:21.458Z,2.97
2019-03-29T00:56:51.062Z,3.53
2019-03-29T00:59:20.670Z,4.10
2019-03-29T01:01:50.582Z,2.57
2019-03-29T01:04:20.328Z,2.60
2019-03-29T01:06:50.359Z,4.43
2019-03-29T01:09:20.329Z,3.60
2019-03-29T01:11:49.911Z,2.67
2019-03-29T01:14:19.436Z,3.87
2019-03-29T01:16:49.187Z,3.37
2019-03-29T01:19:18.780Z,3.37
2019-03-29T01:21:48.294Z,3.33
2019-03-29T01:24:18.227Z,5.37
2019-03-29T01:26:47.831Z,2.00
2019-03-29T01:29:17.422Z,3.80
2019-03-29T01:31:47.255Z,3.73
2019-03-29T01:34:17.146Z,2.20
2019-03-29T01:36:47.222Z,3.10
2019-03-29T01:39:17.246Z,4.27
2019-03-29T01:41:46.817Z,2.47
2019-03-29T01:44:16.430Z,3.97
2019-03-29T01:46:46.366Z,2.50
2019-03-29T01:49:16.034Z,3.13
2019-03-29T01:51:46.026Z,2.77
2019-03-29T01:54:16.286Z,2.53
2019-03-29T01:56:45.925Z,3.10
2019-03-29T01:59:16.970Z,3.97
2019-03-29T02:01:46.889Z,3.47
2019-03-29T02:04:16.670Z,3.97
2019-03-29T02:06:46.610Z,6.03
2019-03-29T02:09:16.830Z,4.93
2019-03-29T02:11:46.428Z,3.17
2019-03-29T02:14:16.095Z,2.83
2019-03-29T02:16:45.739Z,3.63
2019-03-29T02:19:15.408Z,6.63
2019-03-29T02:21:45.288Z,6.87
2019-03-29T02:24:14.892Z,4.23
2019-03-29T02:26:44.482Z,4.03
2019-03-29T02:29:14.366Z,3.33
2019-03-29T02:31:44.624Z,4.90
2019-03-29T02:34:15.795Z,2.37
2019-03-29T02:36:45.583Z,5.30
2019-03-29T02:39:16.191Z,3.30
2019-03-29T02:41:46.865Z,5.13
2019-03-29T02:44:16.859Z,5.00
2019-03-29T02:46:46.784Z,4.07
2019-03-29T02:49:16.498Z,3.80
2019-03-29T02:51:46.085Z,3.83
2019-03-29T02:54:16.286Z,3.87
2019-03-29T02:56:45.878Z,4.03
2019-03-29T02:59:15.467Z,3.40
2019-03-29T03:01:45.415Z,3.33
2019-03-29T03:04:15.312Z,3.87
2019-03-29T03:06:45.603Z,4.13
2019-03-29T03:09:15.828Z,4.20
2019-03-29T03:11:45.563Z,3.13
2019-03-29T03:14:15.156Z,3.17
2019-03-29T03:16:45.086Z,3.70
2019-03-29T03:19:14.679Z,3.00
2019-03-29T03:21:44.197Z,3.33
2019-03-29T03:24:13.814Z,3.03
2019-03-29T03:26:43.473Z,2.90
2019-03-29T03:29:13.263Z,3.57
2019-03-29T03:31:43.275Z,3.17
2019-03-29T03:34:12.910Z,2.33
2019-03-29T03:36:42.501Z,2.83
2019-03-29T03:39:30.203Z,3.73
2019-03-29T03:41:44.026Z,3.93
2019-03-29T03:44:13.623Z,2.97
2019-03-29T03:46:43.967Z,3.47
2019-03-29T03:49:13.560Z,2.70
2019-03-29T03:51:43.161Z,3.70
2019-03-29T03:54:13.393Z,3.37
2019-03-29T03:56:42.991Z,3.13
2019-03-29T03:59:12.653Z,2.60
2019-03-29T04:01:42.544Z,3.00
2019-03-29T04:04:12.526Z,4.80
2019-03-29T04:06:42.892Z,3.93
2019-03-29T04:09:12.511Z,3.63
2019-03-29T04:11:42.419Z,3.77
2019-03-29T04:14:12.081Z,3.83
2019-03-29T04:16:41.754Z,3.63
2019-03-29T04:19:11.351Z,7.10
2019-03-29T04:21:40.860Z,2.77
2019-03-29T04:24:10.483Z,3.50
2019-03-29T04:26:39.989Z,4.43
2019-03-29T04:29:09.579Z,4.33
2019-03-29T04:31:39.650Z,3.33
2019-03-29T04:34:09.168Z,3.33
2019-03-29T04:36:38.750Z,2.90
2019-03-29T04:39:08.966Z,3.90
2019-03-29T04:41:38.547Z,3.20
2019-03-29T04:44:08.183Z,3.47
2019-03-29T04:46:38.260Z,3.40
2019-03-29T04:49:07.837Z,3.83
2019-03-29T04:51:37.362Z,3.90
2019-03-29T04:54:07.336Z,3.90
2019-03-29T04:56:36.952Z,4.47
2019-03-29T04:59:06.531Z,4.30
2019-03-29T05:01:36.594Z,6.50
2019-03-29T05:04:06.847Z,3.93
2019-03-29T05:06:36.766Z,3.77
2019-03-29T05:09:09.281Z,5.10
2019-03-29T05:11:38.875Z,4.60
2019-03-29T05:14:08.374Z,4.83
2019-03-29T05:16:38.147Z,4.97
2019-03-29T05:19:07.740Z,4.90
2019-03-29T05:21:37.171Z,4.70
2019-03-29T05:24:06.731Z,4.20
2019-03-29T05:26:36.312Z,5.40
2019-03-29T05:29:05.893Z,5.07
2019-03-29T05:31:36.134Z,5.67
2019-03-29T05:34:05.642Z,4.87
2019-03-29T05:36:35.154Z,6.37
2019-03-29T05:39:06.810Z,5.20
2019-03-29T05:41:36.326Z,6.10
2019-03-29T05:44:05.922Z,6.40
2019-03-29T05:46:35.923Z,5.77
2019-03-29T05:49:05.446Z,5.20
2019-03-29T05:51:34.954Z,6.50
2019-03-29T05:54:05.050Z,5.67
2019-03-29T05:56:34.650Z,6.63
2019-03-29T05:59:04.239Z,6.87
2019-03-29T06:01:34.114Z,6.00
2019-03-29T06:04:03.880Z,6.73
2019-03-29T06:06:34.178Z,7.67
2019-03-29T06:09:05.527Z,6.37
2019-03-29T06:11:36.563Z,7.63
2019-03-29T06:14:06.069Z,8.13
2019-03-29T06:16:39.107Z,7.23
2019-03-29T06:19:07.545Z,6.77
2019-03-29T06:21:37.131Z,7.93
2019-03-29T06:24:06.758Z,8.97
2019-03-29T06:26:36.306Z,7.10
2019-03-29T06:29:06.094Z,7.47
2019-03-29T06:31:35.932Z,4.90
2019-03-29T06:34:05.439Z,5.77
2019-03-29T06:36:34.929Z,6.77
2019-03-29T06:39:06.874Z,6.63
2019-03-29T06:41:36.476Z,6.00
2019-03-29T06:44:06.050Z,8.00
2019-03-29T06:46:36.004Z,7.20
2019-03-29T06:49:05.593Z,4.97
2019-03-29T06:51:35.121Z,6.70
2019-03-29T06:54:05.234Z,6.53
2019-03-29T06:56:34.823Z,5.43
2019-03-29T06:59:04.410Z,6.97
2019-03-29T07:01:34.666Z,6.17
2019-03-29T07:04:04.408Z,6.37
2019-03-29T07:06:34.350Z,6.77
2019-03-29T07:09:07.178Z,4.20
2019-03-29T07:11:39.538Z,5.17
2019-03-29T07:14:08.070Z,5.93
2019-03-29T07:16:38.143Z,5.47
2019-03-29T07:19:07.732Z,6.27
2019-03-29T07:21:37.258Z,5.00
2019-03-29T07:24:06.891Z,4.97
2019-03-29T07:26:36.410Z,5.63
2019-03-29T07:29:05.962Z,6.90
2019-03-29T07:31:35.709Z,4.87
2019-03-29T07:34:05.288Z,7.50
2019-03-29T07:36:34.786Z,5.97
2019-03-29T07:39:05.746Z,6.87
2019-03-29T07:41:35.306Z,4.33
2019-03-29T07:44:04.894Z,7.07
2019-03-29T07:46:34.907Z,6.53
2019-03-29T07:49:04.513Z,5.77
2019-03-29T07:51:34.112Z,6.27
2019-03-29T07:54:04.383Z,6.33
2019-03-29T07:56:33.902Z,5.93
2019-03-29T07:59:03.427Z,5.60
2019-03-29T08:01:35.852Z,6.47
2019-03-29T08:04:05.909Z,4.80
2019-03-29T08:06:35.862Z,6.77
2019-03-29T08:09:21.343Z,5.53
2019-03-29T08:11:46.052Z,5.67
2019-03-29T08:14:09.914Z,5.43
2019-03-29T08:16:40.063Z,7.93
2019-03-29T08:19:09.666Z,5.33
2019-03-29T08:21:39.398Z,8.30
2019-03-29T08:24:09.054Z,6.27
2019-03-29T08:26:38.589Z,7.37
2019-03-29T08:29:08.172Z,10.90
2019-03-29T08:31:38.114Z,7.67
2019-03-29T08:34:07.689Z,4.77
2019-03-29T08:36:37.282Z,10.77
2019-03-29T08:39:10.192Z,9.73
2019-03-29T08:41:39.387Z,8.83
2019-03-29T08:44:11.684Z,12.50
2019-03-29T08:46:40.970Z,11.07
2019-03-29T08:49:10.707Z,11.83
2019-03-29T08:51:41.628Z,7.83
2019-03-29T08:54:11.308Z,6.83
2019-03-29T08:56:40.895Z,5.63
2019-03-29T08:59:10.695Z,8.57
2019-03-29T09:01:40.757Z,8.40
2019-03-29T09:04:10.378Z,8.97
2019-03-29T09:06:52.686Z,12.10
2019-03-29T09:09:12.266Z,10.00
2019-03-29T09:11:42.387Z,5.87
2019-03-29T09:14:11.971Z,5.03
2019-03-29T09:16:41.883Z,4.10
2019-03-29T09:19:11.459Z,5.60
2019-03-29T09:21:41.324Z,6.23
2019-03-29T09:24:21.875Z,4.87
2019-03-29T09:26:42.248Z,9.93
2019-03-29T09:29:11.814Z,5.80
2019-03-29T09:31:41.571Z,4.53
2019-03-29T09:34:11.067Z,7.80
2019-03-29T09:36:40.651Z,3.83
2019-03-29T09:39:10.390Z,6.53
2019-03-29T09:41:40.118Z,5.20
2019-03-29T09:44:09.750Z,4.77
2019-03-29T09:46:40.283Z,4.13
2019-03-29T09:49:09.854Z,4.10
2019-03-29T09:51:39.447Z,4.83
2019-03-29T09:54:09.102Z,4.67
2019-03-29T09:56:39.623Z,3.77
2019-03-29T09:59:09.576Z,4.60
2019-03-29T10:01:39.606Z,6.50
2019-03-29T10:04:09.186Z,3.93
2019-03-29T10:06:38.827Z,8.30
2019-03-29T10:09:09.358Z,4.33
2019-03-29T10:11:38.950Z,3.77
2019-03-29T10:14:08.547Z,3.13
2019-03-29T10:16:38.471Z,5.10
2019-03-29T10:19:07.979Z,4.43
2019-03-29T10:21:37.570Z,4.77
2019-03-29T10:24:07.179Z,6.83
2019-03-29T10:26:36.711Z,3.53
2019-03-29T10:29:06.478Z,5.27
2019-03-29T10:31:36.117Z,3.90
2019-03-29T10:34:05.707Z,7.57
2019-03-29T10:36:35.489Z,7.33
2019-03-29T10:39:09.290Z,3.83
2019-03-29T10:41:38.903Z,8.30
2019-03-29T10:44:08.477Z,8.57
2019-03-29T10:46:38.221Z,4.57
2019-03-29T10:49:07.963Z,5.50
2019-03-29T10:51:37.509Z,5.73
2019-03-29T10:54:07.280Z,8.83
2019-03-29T10:56:38.080Z,3.67
2019-03-29T10:59:08.105Z,4.23
2019-03-29T11:01:37.693Z,6.43
2019-03-29T11:04:07.300Z,3.90
2019-03-29T11:06:37.254Z,4.30
2019-03-29T11:09:08.744Z,3.27
2019-03-29T11:11:38.562Z,4.97
2019-03-29T11:14:08.481Z,7.47
2019-03-29T11:16:38.090Z,6.07
2019-03-29T11:19:07.666Z,8.00
2019-03-29T11:21:37.215Z,6.00
2019-03-29T11:24:09.117Z,12.97
2019-03-29T11:26:38.139Z,8.27
2019-03-29T11:29:07.809Z,7.50
2019-03-29T11:31:37.392Z,14.60
2019-03-29T11:34:06.905Z,12.17
2019-03-29T11:36:36.498Z,12.00
2019-03-29T11:39:07.976Z,12.80
2019-03-29T11:41:37.666Z,11.20
2019-03-29T11:44:07.510Z,13.50
2019-03-29T11:46:37.110Z,10.37
2019-03-29T11:49:06.694Z,8.70
2019-03-29T11:51:36.475Z,10.93
2019-03-29T11:54:06.054Z,10.80
2019-03-29T11:56:35.650Z,10.33
2019-03-29T11:59:05.633Z,10.37
2019-03-29T12:01:35.418Z,12.70
2019-03-29T12:04:05.249Z,13.37
2019-03-29T12:06:34.915Z,8.43
2019-03-29T12:09:05.824Z,11.33
2019-03-29T12:11:36.219Z,9.83
2019-03-29T12:14:06.103Z,9.90
2019-03-29T12:16:35.577Z,6.67
2019-03-29T12:19:05.080Z,6.30
2019-03-29T12:21:35.591Z,6.53
2019-03-29T12:24:05.175Z,6.40
2019-03-29T12:26:34.798Z,7.37
2019-03-29T12:29:04.602Z,7.77
2019-03-29T12:31:34.194Z,6.50
2019-03-29T12:34:03.704Z,9.53
2019-03-29T12:36:33.378Z,5.00
2019-03-29T12:39:02.981Z,6.10
2019-03-29T12:41:32.569Z,7.17
2019-03-29T12:44:02.186Z,6.43
2019-03-29T12:46:32.395Z,6.73
2019-03-29T12:49:02.312Z,8.30
2019-03-29T12:51:32.547Z,7.60
2019-03-29T12:54:02.061Z,7.20
2019-03-29T12:56:31.649Z,7.33
2019-03-29T12:59:01.286Z,7.80
2019-03-29T13:01:39.381Z,9.97
2019-03-29T13:04:02.306Z,7.90
2019-03-29T13:06:32.414Z,6.80
2019-03-29T13:09:02.272Z,6.43
2019-03-29T13:11:32.024Z,8.77
2019-03-29T13:14:09.991Z,7.67
2019-03-29T13:16:33.505Z,7.27
2019-03-29T13:19:03.287Z,8.57
2019-03-29T13:21:33.218Z,10.03
2019-03-29T13:24:02.809Z,6.63
2019-03-29T13:26:32.586Z,6.77
2019-03-29T13:29:02.333Z,5.20
2019-03-29T13:31:31.994Z,6.27
2019-03-29T13:34:01.599Z,7.30
2019-03-29T13:36:31.270Z,5.77
2019-03-29T13:39:00.857Z,6.57
2019-03-29T13:41:30.436Z,5.93
2019-03-29T13:44:00.177Z,5.70
2019-03-29T13:46:29.760Z,6.50
2019-03-29T13:48:59.641Z,4.90
2019-03-29T13:51:29.402Z,5.13
2019-03-29T13:53:58.978Z,7.00
2019-03-29T13:56:28.567Z,4.77
2019-03-29T13:58:58.762Z,6.13
2019-03-29T14:01:28.375Z,7.07
2019-03-29T14:03:58.279Z,6.30
2019-03-29T14:06:28.289Z,5.33
2019-03-29T14:08:57.935Z,6.77
2019-03-29T14:11:28.026Z,5.70
2019-03-29T14:13:58.635Z,4.90
2019-03-29T14:16:28.145Z,5.23
2019-03-29T14:18:57.986Z,4.87
2019-03-29T14:21:28.071Z,7.00
2019-03-29T14:23:57.689Z,5.07
2019-03-29T14:26:27.291Z,7.50
2019-03-29T14:28:57.319Z,3.73
2019-03-29T14:31:27.010Z,4.63
2019-03-29T14:33:56.606Z,4.70
2019-03-29T14:36:26.213Z,5.40
2019-03-29T14:38:55.805Z,6.30
2019-03-29T14:41:25.570Z,5.50
2019-03-29T14:43:56.058Z,5.13
2019-03-29T14:46:25.674Z,5.07
2019-03-29T14:48:55.279Z,5.20
2019-03-29T14:51:25.493Z,5.57
2019-03-29T14:53:55.240Z,4.50
2019-03-29T14:56:24.835Z,5.83
2019-03-29T14:58:55.238Z,5.47
2019-03-29T15:01:24.876Z,4.13
2019-03-29T15:03:54.419Z,6.33
2019-03-29T15:06:24.362Z,6.33
2019-03-29T15:08:54.116Z,6.17
2019-03-29T15:11:23.922Z,7.60
2019-03-29T15:13:55.023Z,5.87
2019-03-29T15:16:24.641Z,4.07
2019-03-29T15:18:54.266Z,4.23
2019-03-29T15:21:24.473Z,3.73
2019-03-29T15:23:54.087Z,5.67
2019-03-29T15:26:23.679Z,4.90
2019-03-29T15:28:53.886Z,2.97
2019-03-29T15:31:23.558Z,5.70
2019-03-29T15:33:55.461Z,4.60
2019-03-29T15:36:24.539Z,7.57
2019-03-29T15:38:54.065Z,8.97
2019-03-29T15:41:23.673Z,8.03
2019-03-29T15:43:53.431Z,5.10
2019-03-29T15:46:22.970Z,5.60
2019-03-29T15:48:52.588Z,8.93
2019-03-29T15:51:22.917Z,6.30
2019-03-29T15:53:52.450Z,4.10
2019-03-29T15:56:22.075Z,5.63
2019-03-29T15:58:51.751Z,3.93
2019-03-29T16:01:21.282Z,5.37
2019-03-29T16:03:50.889Z,5.57
2019-03-29T16:06:21.247Z,4.13
2019-03-29T16:08:50.858Z,7.77
2019-03-29T16:11:22.521Z,4.37
2019-03-29T16:13:52.747Z,6.17
2019-03-29T16:16:22.380Z,3.37
2019-03-29T16:18:51.964Z,4.30
2019-03-29T16:21:21.661Z,3.70
2019-03-29T16:23:51.323Z,3.87
2019-03-29T16:26:20.858Z,4.20
2019-03-29T16:28:50.454Z,7.27
2019-03-29T16:31:20.042Z,3.70
2019-03-29T16:33:49.965Z,4.87
2019-03-29T16:36:19.582Z,3.53
2019-03-29T16:38:49.174Z,4.40
2019-03-29T16:41:18.969Z,4.63
2019-03-29T16:43:48.710Z,3.30
2019-03-29T16:46:18.328Z,4.83
2019-03-29T16:48:47.837Z,4.10
2019-03-29T16:51:17.637Z,13.73
2019-03-29T16:53:47.217Z,97.80
2019-03-29T16:56:16.794Z,63.73
2019-03-29T16:58:46.532Z,87.80
2019-03-29T17:01:16.139Z,85.87
2019-03-29T17:03:45.777Z,90.57
2019-03-29T17:06:16.048Z,107.87
2019-03-29T17:08:45.768Z,103.40
2019-03-29T17:11:15.523Z,91.10
2019-03-29T17:13:46.078Z,88.23
2019-03-29T17:16:29.449Z,87.00
2019-03-29T17:18:47.278Z,82.27
2019-03-29T17:21:17.047Z,85.57
2019-03-29T17:23:46.926Z,76.43
2019-03-29T17:26:16.528Z,70.20
2019-03-29T17:28:46.466Z,62.73
2019-03-29T17:31:16.666Z,63.10
2019-03-29T17:33:46.283Z,54.03
2019-03-29T17:36:15.935Z,52.87
2019-03-29T17:38:45.542Z,45.07
2019-03-29T17:41:15.179Z,43.77
2019-03-29T17:43:45.038Z,38.33
2019-03-29T17:46:16.578Z,39.43
2019-03-29T17:48:46.222Z,35.10
2019-03-29T17:51:16.243Z,33.67
2019-03-29T17:53:45.844Z,36.60
2019-03-29T17:56:15.510Z,30.97
2019-03-29T17:58:45.430Z,27.13
2019-03-29T18:01:15.035Z,23.03
2019-03-29T18:03:44.674Z,29.03
2019-03-29T18:06:14.679Z,25.33
2019-03-29T18:08:44.259Z,22.67
2019-03-29T18:11:13.859Z,24.30
2019-03-29T18:13:43.996Z,22.37
2019-03-29T18:16:14.199Z,20.90
2019-03-29T18:18:43.799Z,22.57
2019-03-29T18:21:13.574Z,23.17
2019-03-29T18:23:43.159Z,19.40
2019-03-29T18:26:12.715Z,17.07
2019-03-29T18:28:42.399Z,19.03
2019-03-29T18:31:11.978Z,22.00
2019-03-29T18:33:41.635Z,18.13
2019-03-29T18:36:11.182Z,18.77
2019-03-29T18:38:40.766Z,16.73
2019-03-29T18:41:10.354Z,19.27
2019-03-29T18:43:40.065Z,16.23
2019-03-29T18:46:09.649Z,18.43
2019-03-29T18:48:39.167Z,16.77
2019-03-29T18:51:09.325Z,16.03
2019-03-29T18:53:38.978Z,17.10
2019-03-29T18:56:08.504Z,16.13
2019-03-29T18:58:38.331Z,15.33
2019-03-29T19:01:07.926Z,13.47
2019-03-29T19:03:37.658Z,16.63
2019-03-29T19:06:07.589Z,19.47
2019-03-29T19:08:37.195Z,14.57
2019-03-29T19:11:06.778Z,15.10
2019-03-29T19:13:37.010Z,28.27
2019-03-29T19:16:07.222Z,19.10
2019-03-29T19:18:36.813Z,18.70
2019-03-29T19:21:06.351Z,19.63
2019-03-29T19:23:35.953Z,15.70
2019-03-29T19:26:05.643Z,18.30
2019-03-29T19:28:35.334Z,17.63
2019-03-29T19:31:04.919Z,18.47
2019-03-29T19:33:37.758Z,13.00
2019-03-29T19:36:07.385Z,14.33
2019-03-29T19:38:36.935Z,12.53
2019-03-29T19:41:06.654Z,14.27
2019-03-29T19:43:36.305Z,18.00
2019-03-29T19:46:06.332Z,13.40
2019-03-29T19:48:35.943Z,13.00
2019-03-29T19:51:05.720Z,14.13
2019-03-29T19:53:35.355Z,12.20
2019-03-29T19:56:05.687Z,13.57
2019-03-29T19:58:35.871Z,14.97
2019-03-29T20:01:05.489Z,13.70
2019-03-29T20:03:35.138Z,14.67
2019-03-29T20:06:05.071Z,15.63
2019-03-29T20:08:34.671Z,15.67
2019-03-29T20:11:04.182Z,13.60
2019-03-29T20:13:34.025Z,12.83
2019-03-29T20:16:03.911Z,12.53
2019-03-29T20:18:33.890Z,17.73
2019-03-29T20:21:03.524Z,19.20
2019-03-29T20:23:33.097Z,17.40
2019-03-29T20:26:02.632Z,12.73
2019-03-29T20:28:32.543Z,12.43
2019-03-29T20:31:02.148Z,13.03
2019-03-29T20:33:31.723Z,13.37
2019-03-29T20:36:01.345Z,14.70
2019-03-29T20:38:30.966Z,14.43
2019-03-29T20:41:00.474Z,13.33
2019-03-29T20:43:30.014Z,15.53
2019-03-29T20:45:59.536Z,15.90
2019-03-29T20:48:29.130Z,11.70
2019-03-29T20:50:58.818Z,12.30
2019-03-29T20:53:28.413Z,13.67
2019-03-29T20:55:58.464Z,13.60
2019-03-29T20:58:28.874Z,13.10
2019-03-29T21:00:58.454Z,12.60
2019-03-29T21:03:28.079Z,13.53
2019-03-29T21:05:57.773Z,11.50
2019-03-29T21:08:27.276Z,11.03
2019-03-29T21:10:56.858Z,12.03
2019-03-29T21:13:26.490Z,11.83
2019-03-29T21:15:56.214Z,10.37
2019-03-29T21:18:25.802Z,10.60
2019-03-29T21:20:55.915Z,12.70
2019-03-29T21:23:25.338Z,12.53
2019-03-29T21:25:54.942Z,10.43
2019-03-29T21:28:24.853Z,13.90
2019-03-29T21:30:54.475Z,9.47
2019-03-29T21:33:24.130Z,11.73
2019-03-29T21:35:53.757Z,12.03
2019-03-29T21:38:23.254Z,14.40
2019-03-29T21:40:52.843Z,9.57
2019-03-29T21:43:22.730Z,11.83
2019-03-29T21:45:52.305Z,14.03
2019-03-29T21:48:29.402Z,10.70
2019-03-29T21:50:53.235Z,11.33
2019-03-29T21:53:22.817Z,14.83
2019-03-29T21:55:52.514Z,10.23
2019-03-29T21:58:22.817Z,12.10
2019-03-29T22:00:52.325Z,9.90
2019-03-29T22:03:21.844Z,12.00
2019-03-29T22:05:51.457Z,15.43
2019-03-29T22:08:21.034Z,11.70
2019-03-29T22:10:50.678Z,11.23
2019-03-29T22:13:20.780Z,11.70
2019-03-29T22:15:50.530Z,11.30
2019-03-29T22:18:20.457Z,9.60
2019-03-29T22:20:50.070Z,9.23
2019-03-29T22:23:19.570Z,9.40
2019-03-29T22:25:49.350Z,11.10
2019-03-29T22:28:19.622Z,8.93
2019-03-29T22:30:49.139Z,10.30
2019-03-29T22:33:18.722Z,10.67
2019-03-29T22:35:48.366Z,12.30
2019-03-29T22:38:18.005Z,10.37
2019-03-29T22:40:47.590Z,10.73
2019-03-29T22:43:17.378Z,11.50
2019-03-29T22:45:47.450Z,13.97
2019-03-29T22:48:17.043Z,15.20
2019-03-29T22:50:47.518Z,13.80
2019-03-29T22:53:17.043Z,14.97
2019-03-29T22:55:46.622Z,14.53
2019-03-29T22:58:16.645Z,16.27
2019-03-29T23:00:48.350Z,19.17
2019-03-29T23:03:17.958Z,17.37
2019-03-29T23:05:48.228Z,20.47
2019-03-29T23:08:17.883Z,17.70
2019-03-29T23:10:47.506Z,17.87
2019-03-29T23:13:17.882Z,19.60
2019-03-29T23:15:47.776Z,21.17
2019-03-29T23:18:17.747Z,19.07
2019-03-29T23:20:47.310Z,18.87
2019-03-29T23:23:16.896Z,16.57
2019-03-29T23:25:47.202Z,13.60
2019-03-29T23:28:17.166Z,15.10
2019-03-29T23:30:46.814Z,17.60
2019-03-29T23:33:16.398Z,11.67
2019-03-29T23:35:46.576Z,13.53
2019-03-29T23:38:16.161Z,14.87
2019-03-29T23:40:45.772Z,12.57
2019-03-29T23:43:15.701Z,12.47
2019-03-29T23:45:45.288Z,10.23
2019-03-29T23:48:14.882Z,12.77
2019-03-29T23:50:44.826Z,13.70
2019-03-29T23:53:14.414Z,14.53
2019-03-29T23:55:43.916Z,10.83
2019-03-29T23:58:13.957Z,11.93
